createdAt,value
2018-07-25T00:00:19.683Z,57.17
2018-07-25T00:02:48.552Z,57.34
2018-07-25T00:05:17.257Z,57.75
2018-07-25T00:07:45.946Z,57.70
2018-07-25T00:10:14.579Z,57.37
2018-07-25T00:12:43.281Z,57.28
2018-07-25T00:15:11.913Z,57.95
2018-07-25T00:17:40.586Z,57.67
2018-07-25T00:20:09.402Z,57.81
2018-07-25T00:22:38.140Z,58.43
2018-07-25T00:25:06.850Z,58.66
2018-07-25T00:27:36.163Z,59.24
2018-07-25T00:30:05.409Z,59.42
2018-07-25T00:32:34.370Z,59.04
2018-07-25T00:35:03.031Z,58.83
2018-07-25T00:37:31.645Z,59.08
2018-07-25T00:40:00.705Z,58.82
2018-07-25T00:42:29.364Z,59.09
2018-07-25T00:44:58.085Z,58.89
2018-07-25T00:47:27.139Z,58.76
2018-07-25T00:49:56.083Z,58.88
2018-07-25T00:52:25.640Z,58.88
2018-07-25T00:54:54.280Z,58.35
2018-07-25T00:57:23.911Z,59.15
2018-07-25T00:59:52.544Z,59.87
2018-07-25T01:02:21.267Z,60.05
2018-07-25T01:04:50.840Z,60.24
2018-07-25T01:07:19.522Z,60.37
2018-07-25T01:09:48.530Z,60.48
2018-07-25T01:12:17.243Z,60.46
2018-07-25T01:14:45.857Z,60.04
2018-07-25T01:17:14.469Z,60.66
2018-07-25T01:19:43.336Z,60.06
2018-07-25T01:22:12.265Z,60.46
2018-07-25T01:24:40.959Z,59.92
2018-07-25T01:27:09.639Z,60.17
2018-07-25T01:29:39.313Z,60.84
2018-07-25T01:32:08.562Z,60.84
2018-07-25T01:34:38.195Z,61.02
2018-07-25T01:37:07.150Z,60.98
2018-07-25T01:39:36.427Z,60.57
2018-07-25T01:42:05.016Z,60.93
2018-07-25T01:44:33.648Z,60.96
2018-07-25T01:47:02.297Z,61.08
2018-07-25T01:49:31.020Z,61.22
2018-07-25T01:52:00.008Z,61.31
2018-07-25T01:54:28.751Z,61.06
2018-07-25T01:56:57.328Z,61.00
2018-07-25T01:59:28.298Z,61.24
2018-07-25T02:01:58.583Z,61.00
2018-07-25T02:04:27.739Z,61.24
2018-07-25T02:06:56.365Z,61.40
2018-07-25T02:09:25.083Z,61.77
2018-07-25T02:11:54.533Z,61.91
2018-07-25T02:14:23.630Z,61.76
2018-07-25T02:16:52.242Z,61.14
2018-07-25T02:19:21.023Z,61.20
2018-07-25T02:21:49.625Z,61.98
2018-07-25T02:24:18.270Z,62.74
2018-07-25T02:26:47.389Z,63.04
2018-07-25T02:29:16.053Z,62.74
2018-07-25T02:31:44.648Z,62.77
2018-07-25T02:34:18.416Z,62.82
2018-07-25T02:36:47.035Z,62.83
2018-07-25T02:39:15.757Z,63.05
2018-07-25T02:41:45.160Z,62.73
2018-07-25T02:44:14.130Z,62.45
2018-07-25T02:46:42.727Z,62.41
2018-07-25T02:49:11.556Z,62.20
2018-07-25T02:51:40.162Z,62.63
2018-07-25T02:54:09.319Z,62.98
2018-07-25T02:56:37.916Z,62.66
2018-07-25T02:59:06.762Z,62.95
2018-07-25T03:01:35.385Z,63.24
2018-07-25T03:04:04.056Z,63.25
2018-07-25T03:06:32.702Z,63.38
2018-07-25T03:09:01.492Z,63.42
2018-07-25T03:11:30.149Z,63.20
2018-07-25T03:13:58.770Z,63.43
2018-07-25T03:16:27.640Z,63.70
2018-07-25T03:18:56.211Z,63.22
2018-07-25T03:21:24.854Z,63.47
2018-07-25T03:23:53.567Z,63.77
2018-07-25T03:26:22.185Z,63.47
2018-07-25T03:28:51.502Z,63.96
2018-07-25T03:31:20.304Z,64.28
2018-07-25T03:33:48.819Z,64.88
2018-07-25T03:36:17.426Z,65.26
2018-07-25T03:38:46.718Z,65.28
2018-07-25T03:41:15.365Z,65.99
2018-07-25T03:43:44.752Z,66.09
2018-07-25T03:46:13.409Z,65.37
2018-07-25T03:48:42.110Z,65.76
2018-07-25T03:51:10.740Z,65.88
2018-07-25T03:53:39.373Z,66.27
2018-07-25T03:56:08.008Z,66.66
2018-07-25T03:58:36.635Z,66.98
2018-07-25T04:01:05.294Z,67.13
2018-07-25T04:03:33.862Z,66.95
2018-07-25T04:06:03.241Z,67.04
2018-07-25T04:08:31.841Z,66.88
2018-07-25T04:11:00.502Z,66.48
2018-07-25T04:13:29.861Z,66.62
2018-07-25T04:15:58.541Z,67.07
2018-07-25T04:18:27.241Z,67.17
2018-07-25T04:20:55.845Z,66.99
2018-07-25T04:23:24.601Z,66.88
2018-07-25T04:25:53.283Z,66.89
2018-07-25T04:28:21.856Z,66.85
2018-07-25T04:30:50.527Z,66.99
2018-07-25T04:33:21.542Z,67.08
2018-07-25T04:35:50.227Z,66.88
2018-07-25T04:38:18.810Z,66.95
2018-07-25T04:40:47.540Z,66.94
2018-07-25T04:43:16.164Z,66.86
2018-07-25T04:45:44.784Z,66.28
2018-07-25T04:48:13.367Z,66.43
2018-07-25T04:50:41.981Z,66.41
2018-07-25T04:53:11.347Z,66.41
2018-07-25T04:55:39.980Z,66.50
2018-07-25T04:58:08.656Z,66.31
2018-07-25T05:00:37.275Z,66.05
2018-07-25T05:03:05.914Z,66.05
2018-07-25T05:05:35.313Z,66.01
2018-07-25T05:08:03.984Z,65.77
2018-07-25T05:10:32.589Z,65.79
2018-07-25T05:13:01.341Z,65.95
2018-07-25T05:15:30.282Z,65.65
2018-07-25T05:17:58.974Z,64.81
2018-07-25T05:20:28.254Z,65.21
2018-07-25T05:22:57.200Z,65.35
2018-07-25T05:25:25.815Z,65.88
2018-07-25T05:27:54.433Z,65.90
2018-07-25T05:30:23.047Z,65.39
2018-07-25T05:32:52.569Z,65.87
2018-07-25T05:35:21.226Z,65.30
2018-07-25T05:37:49.866Z,65.51
2018-07-25T05:40:18.636Z,65.13
2018-07-25T05:42:47.484Z,65.26
2018-07-25T05:45:16.816Z,65.50
2018-07-25T05:47:45.516Z,65.50
2018-07-25T05:50:14.165Z,65.58
2018-07-25T05:52:43.467Z,64.93
2018-07-25T05:55:12.028Z,64.95
2018-07-25T05:57:40.658Z,65.16
2018-07-25T06:00:09.388Z,64.49
2018-07-25T06:02:38.072Z,64.59
2018-07-25T06:05:06.732Z,64.22
2018-07-25T06:07:35.463Z,64.47
2018-07-25T06:10:04.546Z,64.61
2018-07-25T06:12:33.159Z,64.01
2018-07-25T06:15:01.794Z,63.96
2018-07-25T06:17:30.414Z,63.62
2018-07-25T06:19:59.032Z,63.58
2018-07-25T06:22:27.617Z,63.62
2018-07-25T06:24:56.396Z,63.35
2018-07-25T06:27:25.135Z,63.07
2018-07-25T06:29:53.746Z,63.33
2018-07-25T06:32:22.631Z,62.68
2018-07-25T06:34:51.363Z,62.39
2018-07-25T06:37:20.135Z,61.74
2018-07-25T06:39:48.824Z,61.57
2018-07-25T06:42:17.520Z,61.06
2018-07-25T06:44:46.128Z,61.56
2018-07-25T06:47:14.825Z,61.12
2018-07-25T06:49:43.623Z,61.57
2018-07-25T06:52:12.292Z,60.62
2018-07-25T06:54:40.985Z,60.54
2018-07-25T06:57:10.289Z,60.96
2018-07-25T06:59:38.875Z,60.88
2018-07-25T07:02:07.628Z,59.26
2018-07-25T07:04:36.570Z,58.75
2018-07-25T07:07:05.386Z,59.10
2018-07-25T07:09:34.010Z,58.71
2018-07-25T07:12:03.327Z,58.10
2018-07-25T07:14:31.940Z,58.00
2018-07-25T07:17:00.564Z,57.81
2018-07-25T07:19:29.206Z,57.15
2018-07-25T07:21:58.713Z,57.31
2018-07-25T07:24:27.370Z,57.33
2018-07-25T07:26:56.054Z,56.57
2018-07-25T07:29:24.732Z,56.84
2018-07-25T07:31:53.534Z,56.08
2018-07-25T07:34:22.218Z,56.96
2018-07-25T07:36:51.085Z,56.21
2018-07-25T07:39:19.737Z,56.10
2018-07-25T07:41:48.438Z,56.31
2018-07-25T07:44:17.962Z,55.16
2018-07-25T07:46:46.590Z,54.70
2018-07-25T07:49:15.340Z,55.39
2018-07-25T07:51:43.952Z,52.61
2018-07-25T07:54:12.752Z,53.79
2018-07-25T07:56:41.398Z,52.04
2018-07-25T07:59:10.666Z,51.66
2018-07-25T08:01:39.838Z,53.02
2018-07-25T08:04:09.110Z,51.54
2018-07-25T08:06:37.745Z,51.35
2018-07-25T08:09:09.277Z,51.08
2018-07-25T08:11:37.877Z,49.79
2018-07-25T08:14:06.611Z,48.48
2018-07-25T08:16:35.245Z,49.22
2018-07-25T08:19:03.997Z,47.74
2018-07-25T08:21:32.821Z,47.37
2018-07-25T08:24:01.485Z,47.08
2018-07-25T08:26:30.141Z,47.46
2018-07-25T08:28:58.731Z,47.67
2018-07-25T08:31:28.217Z,48.84
2018-07-25T08:33:56.851Z,47.65
2018-07-25T08:36:25.498Z,47.02
2018-07-25T08:38:54.082Z,47.77
2018-07-25T08:41:22.878Z,46.73
2018-07-25T08:43:51.440Z,47.01
2018-07-25T08:46:20.122Z,46.57
2018-07-25T08:48:49.724Z,46.29
2018-07-25T08:51:18.529Z,46.67
2018-07-25T08:53:47.229Z,46.84
2018-07-25T08:56:16.751Z,44.83
2018-07-25T08:58:45.390Z,45.24
2018-07-25T09:01:14.040Z,45.11
2018-07-25T09:03:42.666Z,45.43
2018-07-25T09:06:11.331Z,43.43
2018-07-25T09:08:39.947Z,42.87
2018-07-25T09:11:08.759Z,43.22
2018-07-25T09:13:37.559Z,43.05
2018-07-25T09:16:06.193Z,41.59
2018-07-25T09:18:35.539Z,42.37
2018-07-25T09:21:04.259Z,41.34
2018-07-25T09:23:32.900Z,40.81
2018-07-25T09:26:01.614Z,41.26
2018-07-25T09:28:30.227Z,40.71
2018-07-25T09:30:58.862Z,39.26
2018-07-25T09:33:27.650Z,40.21
2018-07-25T09:35:58.099Z,39.30
2018-07-25T09:38:26.820Z,39.47
2018-07-25T09:40:55.511Z,40.69
2018-07-25T09:43:24.221Z,38.72
2018-07-25T09:45:52.905Z,38.49
2018-07-25T09:48:21.625Z,37.29
2018-07-25T09:50:50.305Z,37.73
2018-07-25T09:53:18.984Z,38.23
2018-07-25T09:55:48.002Z,37.44
2018-07-25T09:58:16.924Z,36.69
2018-07-25T10:00:47.554Z,36.96
2018-07-25T10:03:17.194Z,38.13
2018-07-25T10:05:46.096Z,36.12
2018-07-25T10:08:15.285Z,33.57
2018-07-25T10:10:44.579Z,35.88
2018-07-25T10:13:13.320Z,35.43
2018-07-25T10:15:41.954Z,35.74
2018-07-25T10:18:10.915Z,34.06
2018-07-25T10:20:39.645Z,32.69
2018-07-25T10:23:08.539Z,32.72
2018-07-25T10:25:37.166Z,34.14
2018-07-25T10:28:06.240Z,33.27
2018-07-25T10:30:34.912Z,34.98
2018-07-25T10:33:03.748Z,33.84
2018-07-25T10:35:32.271Z,34.21
2018-07-25T10:38:00.934Z,31.96
2018-07-25T10:40:29.544Z,32.19
2018-07-25T10:42:58.845Z,32.89
2018-07-25T10:45:27.560Z,32.77
2018-07-25T10:47:56.261Z,31.84
2018-07-25T10:50:25.628Z,33.28
2018-07-25T10:52:54.301Z,31.02
2018-07-25T10:55:22.883Z,32.70
2018-07-25T10:57:51.535Z,31.69
2018-07-25T11:00:21.076Z,29.85
2018-07-25T11:02:49.695Z,29.99
2018-07-25T11:05:18.484Z,30.58
2018-07-25T11:07:47.442Z,30.89
2018-07-25T11:10:16.181Z,32.04
2018-07-25T11:12:44.810Z,29.71
2018-07-25T11:15:13.571Z,29.51
2018-07-25T11:17:42.345Z,30.42
2018-07-25T11:20:11.293Z,29.20
2018-07-25T11:22:39.961Z,29.67
2018-07-25T11:25:08.667Z,30.08
2018-07-25T11:27:38.180Z,29.66
2018-07-25T11:30:06.973Z,29.06
2018-07-25T11:32:35.737Z,30.09
2018-07-25T11:35:04.316Z,29.88
2018-07-25T11:37:33.197Z,29.70
2018-07-25T11:40:01.827Z,29.12
2018-07-25T11:42:30.529Z,29.56
2018-07-25T11:45:05.943Z,28.90
2018-07-25T11:47:34.556Z,29.12
2018-07-25T11:50:03.256Z,29.62
2018-07-25T11:52:31.894Z,28.99
2018-07-25T11:55:00.972Z,29.52
2018-07-25T11:57:29.619Z,29.03
2018-07-25T11:59:58.253Z,27.67
2018-07-25T12:02:26.867Z,28.23
2018-07-25T12:04:55.499Z,27.45
2018-07-25T12:07:24.132Z,27.51
2018-07-25T12:09:52.945Z,28.56
2018-07-25T12:12:21.538Z,27.83
2018-07-25T12:14:50.189Z,27.89
2018-07-25T12:17:19.094Z,27.68
2018-07-25T12:19:47.739Z,27.67
2018-07-25T12:22:16.445Z,26.82
2018-07-25T12:24:45.091Z,26.34
2018-07-25T12:27:13.745Z,27.02
2018-07-25T12:29:43.124Z,27.11
2018-07-25T12:32:12.593Z,26.47
2018-07-25T12:34:41.270Z,25.71
2018-07-25T12:37:10.540Z,26.65
2018-07-25T12:39:40.319Z,24.85
2018-07-25T12:42:09.800Z,26.40
2018-07-25T12:44:38.416Z,24.93
2018-07-25T12:47:07.139Z,24.65
2018-07-25T12:49:36.120Z,25.56
2018-07-25T12:52:04.765Z,24.25
2018-07-25T12:54:33.427Z,22.86
2018-07-25T12:57:02.036Z,21.02
2018-07-25T12:59:30.733Z,19.03
2018-07-25T13:01:59.494Z,17.69
2018-07-25T13:04:28.798Z,18.49
2018-07-25T13:06:57.557Z,17.82
2018-07-25T13:09:26.317Z,17.01
2018-07-25T13:11:54.939Z,18.02
2018-07-25T13:14:23.578Z,19.15
2018-07-25T13:16:52.431Z,19.77
2018-07-25T13:19:21.034Z,19.41
2018-07-25T13:21:49.827Z,17.60
2018-07-25T13:24:18.514Z,17.12
2018-07-25T13:26:47.616Z,16.68
2018-07-25T13:29:16.313Z,16.94
2018-07-25T13:31:44.999Z,16.42
2018-07-25T13:34:13.699Z,16.24
2018-07-25T13:36:43.285Z,16.71
2018-07-25T13:39:11.895Z,16.52
2018-07-25T13:41:40.728Z,15.54
2018-07-25T13:44:09.406Z,15.20
2018-07-25T13:46:38.067Z,15.93
2018-07-25T13:49:06.971Z,15.42
2018-07-25T13:51:35.822Z,15.27
2018-07-25T13:54:04.562Z,15.58
2018-07-25T13:56:33.270Z,15.58
2018-07-25T13:59:01.942Z,15.54
2018-07-25T14:01:30.621Z,15.76
2018-07-25T14:03:59.975Z,16.75
2018-07-25T14:06:28.652Z,16.17
2018-07-25T14:08:57.318Z,16.65
2018-07-25T14:11:26.711Z,16.32
2018-07-25T14:13:55.317Z,17.65
2018-07-25T14:16:23.983Z,19.21
2018-07-25T14:18:52.712Z,18.45
2018-07-25T14:21:22.169Z,18.96
2018-07-25T14:23:50.928Z,20.06
2018-07-25T14:26:19.435Z,20.74
2018-07-25T14:28:48.851Z,21.31
2018-07-25T14:31:17.495Z,21.12
2018-07-25T14:33:46.380Z,20.80
2018-07-25T14:36:15.241Z,21.28
2018-07-25T14:38:43.920Z,21.76
2018-07-25T14:41:12.633Z,21.96
2018-07-25T14:43:41.319Z,22.83
2018-07-25T14:46:10.697Z,22.64
2018-07-25T14:48:39.484Z,22.61
2018-07-25T14:51:08.174Z,22.69
2018-07-25T14:53:36.759Z,22.87
2018-07-25T14:56:05.739Z,23.18
2018-07-25T14:58:34.416Z,23.45
2018-07-25T15:01:03.010Z,22.51
2018-07-25T15:03:31.682Z,22.06
2018-07-25T15:06:00.309Z,21.74
2018-07-25T15:08:28.982Z,22.10
2018-07-25T15:10:58.374Z,21.45
2018-07-25T15:13:27.028Z,21.26
2018-07-25T15:15:55.732Z,21.94
2018-07-25T15:18:24.376Z,21.82
2018-07-25T15:20:53.066Z,21.45
2018-07-25T15:23:32.936Z,21.20
2018-07-25T15:26:01.609Z,22.03
2018-07-25T15:28:30.234Z,22.61
2018-07-25T15:30:58.916Z,23.23
2018-07-25T15:33:27.833Z,22.41
2018-07-25T15:35:56.549Z,23.17
2018-07-25T15:38:25.199Z,22.96
2018-07-25T15:40:53.868Z,23.32
2018-07-25T15:43:23.245Z,23.72
2018-07-25T15:45:52.887Z,23.50
2018-07-25T15:48:22.891Z,24.31
2018-07-25T15:50:51.774Z,24.79
2018-07-25T15:53:21.419Z,24.87
2018-07-25T15:55:51.498Z,23.87
2018-07-25T15:58:21.274Z,23.87
2018-07-25T16:00:50.361Z,24.36
2018-07-25T16:03:19.024Z,24.11
2018-07-25T16:05:47.706Z,23.99
2018-07-25T16:08:16.399Z,25.33
2018-07-25T16:10:45.261Z,24.35
2018-07-25T16:13:15.313Z,24.56
2018-07-25T16:15:45.188Z,25.22
2018-07-25T16:18:13.991Z,25.31
2018-07-25T16:20:42.774Z,24.60
2018-07-25T16:23:11.590Z,25.46
2018-07-25T16:25:40.478Z,24.84
2018-07-25T16:28:11.366Z,25.89
2018-07-25T16:30:40.114Z,25.13
2018-07-25T16:33:09.185Z,25.33
2018-07-25T16:35:38.813Z,25.34
2018-07-25T16:38:08.389Z,25.59
2018-07-25T16:40:38.467Z,25.37
2018-07-25T16:43:07.980Z,25.61
2018-07-25T16:45:37.253Z,25.28
2018-07-25T16:48:06.203Z,25.16
2018-07-25T16:50:35.062Z,25.11
2018-07-25T16:53:04.208Z,24.99
2018-07-25T16:55:34.923Z,25.64
2018-07-25T16:58:03.601Z,27.75
2018-07-25T17:00:33.302Z,29.56
2018-07-25T17:03:06.206Z,29.31
2018-07-25T17:05:35.553Z,30.24
2018-07-25T17:08:05.830Z,30.32
2018-07-25T17:10:35.458Z,30.68
2018-07-25T17:13:04.845Z,30.75
2018-07-25T17:15:34.451Z,31.19
2018-07-25T17:18:04.379Z,30.99
2018-07-25T17:20:33.415Z,31.45
2018-07-25T17:23:02.098Z,31.01
2018-07-25T17:25:30.827Z,31.14
2018-07-25T17:27:59.614Z,30.95
2018-07-25T17:30:28.300Z,31.98
2018-07-25T17:32:56.996Z,31.76
2018-07-25T17:35:25.731Z,32.18
2018-07-25T17:37:54.555Z,32.48
2018-07-25T17:40:23.245Z,32.52
2018-07-25T17:42:51.955Z,32.44
2018-07-25T17:45:21.146Z,32.11
2018-07-25T17:47:50.763Z,32.17
2018-07-25T17:50:19.549Z,31.77
2018-07-25T17:52:48.451Z,31.22
2018-07-25T17:55:18.246Z,32.56
2018-07-25T17:57:47.019Z,33.07
2018-07-25T18:00:16.102Z,33.01
2018-07-25T18:02:45.657Z,32.44
2018-07-25T18:05:15.365Z,32.79
2018-07-25T18:07:44.256Z,33.07
2018-07-25T18:10:13.624Z,33.01
2018-07-25T18:12:42.713Z,33.54
2018-07-25T18:15:11.593Z,33.62
2018-07-25T18:17:40.384Z,34.33
2018-07-25T18:20:09.272Z,32.46
2018-07-25T18:22:38.378Z,31.47
2018-07-25T18:25:08.232Z,31.50
2018-07-25T18:27:37.228Z,32.28
2018-07-25T18:30:06.993Z,33.82
2018-07-25T18:32:36.615Z,34.25
2018-07-25T18:35:06.373Z,33.83
2018-07-25T18:37:35.839Z,33.14
2018-07-25T18:40:05.580Z,34.14
2018-07-25T18:42:35.936Z,32.29
2018-07-25T18:45:08.274Z,32.69
2018-07-25T18:47:38.296Z,33.58
2018-07-25T18:50:08.951Z,34.05
2018-07-25T18:52:38.538Z,34.21
2018-07-25T18:55:08.553Z,33.99
2018-07-25T18:57:38.132Z,34.45
2018-07-25T19:00:07.507Z,34.66
2018-07-25T19:02:37.469Z,34.67
2018-07-25T19:05:06.231Z,34.91
2018-07-25T19:07:36.341Z,35.24
2018-07-25T19:10:07.169Z,34.88
2018-07-25T19:12:35.994Z,35.02
2018-07-25T19:15:11.140Z,35.74
2018-07-25T19:17:41.117Z,35.76
2018-07-25T19:20:12.250Z,36.70
2018-07-25T19:22:42.235Z,36.13
2018-07-25T19:25:11.720Z,37.02
2018-07-25T19:27:41.226Z,36.90
2018-07-25T19:30:11.639Z,36.96
2018-07-25T19:32:40.976Z,36.98
2018-07-25T19:35:10.646Z,37.53
2018-07-25T19:37:39.817Z,38.50
2018-07-25T19:40:09.611Z,39.23
2018-07-25T19:42:39.093Z,39.81
2018-07-25T19:45:08.619Z,40.05
2018-07-25T19:47:38.060Z,40.28
2018-07-25T19:50:08.629Z,39.50
2018-07-25T19:52:37.650Z,39.98
2018-07-25T19:55:07.321Z,39.80
2018-07-25T19:57:36.517Z,39.99
2018-07-25T20:00:06.284Z,39.91
2018-07-25T20:02:35.917Z,40.14
2018-07-25T20:05:04.965Z,40.08
2018-07-25T20:07:34.345Z,40.56
2018-07-25T20:10:03.340Z,40.71
2018-07-25T20:12:32.108Z,41.36
2018-07-25T20:15:06.335Z,41.67
2018-07-25T20:17:35.412Z,41.57
2018-07-25T20:20:05.472Z,42.34
2018-07-25T20:24:34.614Z,42.67
2018-07-25T20:27:03.395Z,42.67
2018-07-25T20:29:32.191Z,43.33
2018-07-25T20:32:01.154Z,42.65
2018-07-25T20:34:30.279Z,42.96
2018-07-25T20:36:59.759Z,42.71
2018-07-25T20:39:29.208Z,42.29
2018-07-25T20:41:58.702Z,42.81
2018-07-25T20:44:27.345Z,43.22
2018-07-25T20:46:56.019Z,43.78
2018-07-25T20:49:25.505Z,44.29
2018-07-25T20:51:55.159Z,44.19
2018-07-25T20:54:24.255Z,44.81
2018-07-25T20:56:53.237Z,44.38
2018-07-25T20:59:22.434Z,44.64
2018-07-25T21:01:51.764Z,45.14
2018-07-25T21:04:20.881Z,45.48
2018-07-25T21:06:49.874Z,45.97
2018-07-25T21:09:18.690Z,46.24
2018-07-25T21:11:50.341Z,46.42
2018-07-25T21:14:19.702Z,47.04
2018-07-25T21:16:48.380Z,47.05
2018-07-25T21:19:17.733Z,47.34
2018-07-25T21:21:47.548Z,47.55
2018-07-25T21:24:16.183Z,47.31
2018-07-25T21:26:45.541Z,46.76
2018-07-25T21:29:15.682Z,47.07
2018-07-25T21:31:44.543Z,47.70
2018-07-25T21:34:13.217Z,47.80
2018-07-25T21:36:42.210Z,47.81
2018-07-25T21:39:12.828Z,47.92
2018-07-25T21:41:41.718Z,47.98
2018-07-25T21:44:10.406Z,48.07
2018-07-25T21:46:39.471Z,48.51
2018-07-25T21:49:08.323Z,48.78
2018-07-25T21:51:36.972Z,49.48
2018-07-25T21:54:06.159Z,49.63
2018-07-25T21:56:35.138Z,49.82
2018-07-25T21:59:03.848Z,49.61
2018-07-25T22:01:32.732Z,48.80
2018-07-25T22:04:01.404Z,49.62
2018-07-25T22:06:30.125Z,49.11
2018-07-25T22:08:58.904Z,49.22
2018-07-25T22:11:27.497Z,50.32
2018-07-25T22:13:57.080Z,50.92
2018-07-25T22:16:27.584Z,50.30
2018-07-25T22:18:56.305Z,50.05
2018-07-25T22:21:24.919Z,50.12
2018-07-25T22:23:53.683Z,50.84
2018-07-25T22:26:22.354Z,50.91
2018-07-25T22:28:51.119Z,50.86
2018-07-25T22:31:19.784Z,51.33
2018-07-25T22:33:48.453Z,52.01
2018-07-25T22:36:17.875Z,52.28
2018-07-25T22:38:46.530Z,52.49
2018-07-25T22:41:15.196Z,52.76
2018-07-25T22:43:43.806Z,53.32
2018-07-25T22:46:12.498Z,52.91
2018-07-25T22:48:41.537Z,53.04
2018-07-25T22:51:10.371Z,53.14
2018-07-25T22:53:40.096Z,54.26
2018-07-25T22:56:08.757Z,54.38
2018-07-25T22:58:37.396Z,54.31
2018-07-25T23:01:06.165Z,54.21
2018-07-25T23:03:34.871Z,54.94
2018-07-25T23:06:03.496Z,54.52
2018-07-25T23:08:32.285Z,54.26
2018-07-25T23:11:04.569Z,54.38
2018-07-25T23:13:33.273Z,54.44
2018-07-25T23:16:01.908Z,54.94
2018-07-25T23:18:30.537Z,55.89
2018-07-25T23:20:59.311Z,55.74
2018-07-25T23:23:27.912Z,55.73
2018-07-25T23:25:57.326Z,56.39
2018-07-25T23:28:26.279Z,56.26
2018-07-25T23:30:55.577Z,56.33
2018-07-25T23:33:24.217Z,56.07
2018-07-25T23:35:52.906Z,55.54
2018-07-25T23:38:22.293Z,56.15
2018-07-25T23:40:50.898Z,56.53
2018-07-25T23:43:19.542Z,57.31
2018-07-25T23:45:48.911Z,58.07
2018-07-25T23:48:17.657Z,57.90
2018-07-25T23:50:46.658Z,58.43
2018-07-25T23:53:16.147Z,57.93
2018-07-25T23:55:44.843Z,58.07
2018-07-25T23:58:13.443Z,58.46
